sensor_id;sensor_type;location;lat;lon;timestamp;pressure;altitude;pressure_sealevel;temperature;humidity
71344;BME280;59146;43.850;25.948;2023-05-10T00:01:53;101750.53;;;8.68;92.07
71344;BME280;59146;43.850;25.948;2023-05-10T00:04:19;101733.88;;;8.46;93.33
71344;BME280;59146;43.850;25.948;2023-05-10T00:06:45;101787.25;;;8.87;93.82
71344;BME280;59146;43.850;25.948;2023-05-10T00:09:10;101767.47;;;8.82;93.06
71344;BME280;59146;43.850;25.948;2023-05-10T00:11:36;101740.41;;;8.59;92.84
71344;BME280;59146;43.850;25.948;2023-05-10T00:14:01;101798.16;;;8.98;92.17
71344;BME280;59146;43.850;25.948;2023-05-10T00:16:26;101782.88;;;8.61;92.69
71344;BME280;59146;43.850;25.948;2023-05-10T00:18:52;101769.72;;;8.40;94.92
71344;BME280;59146;43.850;25.948;2023-05-10T00:21:17;101715.31;;;8.31;95.51
71344;BME280;59146;43.850;25.948;2023-05-10T00:23:43;101727.06;;;8.42;94.63
71344;BME280;59146;43.850;25.948;2023-05-10T00:26:08;101788.94;;;8.88;93.43
71344;BME280;59146;43.850;25.948;2023-05-10T00:28:33;101724.25;;;8.50;93.12
71344;BME280;59146;43.850;25.948;2023-05-10T00:30:59;101784.00;;;8.54;93.29
71344;BME280;59146;43.850;25.948;2023-05-10T00:33:24;101728.72;;;8.17;94.52
71344;BME280;59146;43.850;25.948;2023-05-10T00:35:50;101619.09;;;7.74;94.42
71344;BME280;59146;43.850;25.948;2023-05-10T00:38:15;101713.56;;;8.31;94.00
71344;BME280;59146;43.850;25.948;2023-05-10T00:40:41;101703.97;;;8.33;93.58
71344;BME280;59146;43.850;25.948;2023-05-10T00:43:06;101768.81;;;8.67;93.26
71344;BME280;59146;43.850;25.948;2023-05-10T00:45:35;101716.44;;;8.22;92.86
71344;BME280;59146;43.850;25.948;2023-05-10T00:48:02;101706.94;;;7.93;94.90
71344;BME280;59146;43.850;25.948;2023-05-10T00:50:29;101704.88;;;8.03;95.49
71344;BME280;59146;43.850;25.948;2023-05-10T00:52:56;101702.09;;;8.09;94.71
71344;BME280;59146;43.850;25.948;2023-05-10T00:55:23;101775.06;;;8.61;94.07
71344;BME280;59146;43.850;25.948;2023-05-10T00:57:48;101763.75;;;8.62;92.87
71344;BME280;59146;43.850;25.948;2023-05-10T01:00:14;101767.69;;;8.20;93.90
71344;BME280;59146;43.850;25.948;2023-05-10T01:02:44;101681.94;;;7.60;95.55
71344;BME280;59146;43.850;25.948;2023-05-10T01:05:10;101773.69;;;8.22;96.18
71344;BME280;59146;43.850;25.948;2023-05-10T01:07:36;101700.53;;;7.76;95.62
71344;BME280;59146;43.850;25.948;2023-05-10T01:10:01;101757.41;;;8.16;95.43
71344;BME280;59146;43.850;25.948;2023-05-10T01:12:27;101749.94;;;8.05;95.25
71344;BME280;59146;43.850;25.948;2023-05-10T01:14:53;101710.31;;;7.68;95.99
71344;BME280;59146;43.850;25.948;2023-05-10T01:17:19;101767.44;;;8.00;96.95
71344;BME280;59146;43.850;25.948;2023-05-10T01:19:46;101687.03;;;7.63;96.69
71344;BME280;59146;43.850;25.948;2023-05-10T01:33:29;101770.53;;;8.13;97.48
71344;BME280;59146;43.850;25.948;2023-05-10T01:38:51;101762.97;;;8.33;95.45
71344;BME280;59146;43.850;25.948;2023-05-10T01:41:45;101711.22;;;7.94;94.77
71344;BME280;59146;43.850;25.948;2023-05-10T01:46:39;101759.78;;;7.95;96.52
71344;BME280;59146;43.850;25.948;2023-05-10T01:49:09;101743.38;;;7.92;96.16
71344;BME280;59146;43.850;25.948;2023-05-10T01:51:47;101724.41;;;7.88;95.74
71344;BME280;59146;43.850;25.948;2023-05-10T01:54:17;101698.97;;;7.70;95.13
71344;BME280;59146;43.850;25.948;2023-05-10T01:56:45;101706.97;;;7.63;94.81
71344;BME280;59146;43.850;25.948;2023-05-10T01:59:17;101757.78;;;7.44;97.00
71344;BME280;59146;43.850;25.948;2023-05-10T02:01:44;101755.69;;;7.58;99.31
71344;BME280;59146;43.850;25.948;2023-05-10T02:04:10;101751.91;;;7.68;97.78
71344;BME280;59146;43.850;25.948;2023-05-10T02:06:39;101695.88;;;7.29;97.80
71344;BME280;59146;43.850;25.948;2023-05-10T02:09:06;101697.56;;;7.30;97.09
71344;BME280;59146;43.850;25.948;2023-05-10T02:11:33;101747.84;;;7.59;96.65
71344;BME280;59146;43.850;25.948;2023-05-10T02:13:59;101709.34;;;7.12;97.65
71344;BME280;59146;43.850;25.948;2023-05-10T02:16:26;101700.88;;;7.04;98.79
71344;BME280;59146;43.850;25.948;2023-05-10T02:18:52;101781.41;;;7.67;99.30
71344;BME280;59146;43.850;25.948;2023-05-10T02:21:20;101774.25;;;7.75;97.85
71344;BME280;59146;43.850;25.948;2023-05-10T02:23:48;101710.22;;;7.11;96.97
71344;BME280;59146;43.850;25.948;2023-05-10T02:26:16;101734.53;;;7.08;97.77
71344;BME280;59146;43.850;25.948;2023-05-10T02:28:43;101757.91;;;7.08;99.05
71344;BME280;59146;43.850;25.948;2023-05-10T02:31:09;101749.13;;;7.14;99.75
71344;BME280;59146;43.850;25.948;2023-05-10T02:33:38;101751.91;;;7.39;100.00
71344;BME280;59146;43.850;25.948;2023-05-10T02:36:05;101772.28;;;7.54;99.13
71344;BME280;59146;43.850;25.948;2023-05-10T02:38:33;101764.72;;;7.45;96.20
71344;BME280;59146;43.850;25.948;2023-05-10T02:41:01;101721.00;;;6.97;95.83
71344;BME280;59146;43.850;25.948;2023-05-10T02:43:28;101758.31;;;7.26;96.78
71344;BME280;59146;43.850;25.948;2023-05-10T02:45:55;101702.22;;;6.86;96.15
71344;BME280;59146;43.850;25.948;2023-05-10T02:48:20;101779.03;;;7.29;96.17
71344;BME280;59146;43.850;25.948;2023-05-10T02:50:46;101767.59;;;7.03;95.29
71344;BME280;59146;43.850;25.948;2023-05-10T02:53:20;101731.81;;;6.47;97.30
71344;BME280;59146;43.850;25.948;2023-05-10T02:55:50;101732.69;;;6.46;99.51
71344;BME280;59146;43.850;25.948;2023-05-10T02:58:17;101708.47;;;6.46;99.13
71344;BME280;59146;43.850;25.948;2023-05-10T03:00:44;101762.19;;;6.77;99.35
71344;BME280;59146;43.850;25.948;2023-05-10T03:03:10;101754.22;;;6.83;98.12
71344;BME280;59146;43.850;25.948;2023-05-10T03:05:36;101713.88;;;6.36;97.68
71344;BME280;59146;43.850;25.948;2023-05-10T03:08:01;101699.75;;;6.13;98.99
71344;BME280;59146;43.850;25.948;2023-05-10T03:10:30;101714.97;;;6.28;100.00
71344;BME280;59146;43.850;25.948;2023-05-10T03:18:22;101717.56;;;6.28;100.00
71344;BME280;59146;43.850;25.948;2023-05-10T03:20:50;101760.91;;;6.60;100.00
71344;BME280;59146;43.850;25.948;2023-05-10T03:26:01;101771.59;;;6.83;100.00
71344;BME280;59146;43.850;25.948;2023-05-10T03:28:27;101742.44;;;6.72;100.00
71344;BME280;59146;43.850;25.948;2023-05-10T03:30:56;101709.31;;;6.80;98.86
71344;BME280;59146;43.850;25.948;2023-05-10T03:33:21;101741.59;;;7.03;97.37
71344;BME280;59146;43.850;25.948;2023-05-10T03:35:47;101771.81;;;7.07;97.73
71344;BME280;59146;43.850;25.948;2023-05-10T03:38:13;101755.03;;;6.87;98.04
71344;BME280;59146;43.850;25.948;2023-05-10T03:40:38;101763.69;;;7.19;98.11
71344;BME280;59146;43.850;25.948;2023-05-10T03:43:04;101691.56;;;6.95;96.99
71344;BME280;59146;43.850;25.948;2023-05-10T03:45:29;101759.34;;;7.51;95.54
71344;BME280;59146;43.850;25.948;2023-05-10T03:47:56;101725.28;;;7.29;94.34
71344;BME280;59146;43.850;25.948;2023-05-10T03:50:22;101710.66;;;7.27;93.60
71344;BME280;59146;43.850;25.948;2023-05-10T03:52:48;101750.16;;;7.38;93.54
71344;BME280;59146;43.850;25.948;2023-05-10T03:55:13;101761.09;;;7.81;93.80
71344;BME280;59146;43.850;25.948;2023-05-10T03:57:39;101771.72;;;8.30;91.26
71344;BME280;59146;43.850;25.948;2023-05-10T04:00:04;101759.53;;;9.82;84.13
71344;BME280;59146;43.850;25.948;2023-05-10T04:02:30;101720.19;;;10.73;75.79
71344;BME280;59146;43.850;25.948;2023-05-10T04:04:56;101767.50;;;11.27;73.46
71344;BME280;59146;43.850;25.948;2023-05-10T04:07:21;101755.53;;;11.99;68.81
71344;BME280;59146;43.850;25.948;2023-05-10T04:09:47;101766.59;;;12.77;66.98
71344;BME280;59146;43.850;25.948;2023-05-10T04:12:12;101753.09;;;14.47;59.74
71344;BME280;59146;43.850;25.948;2023-05-10T04:14:38;101745.53;;;14.86;57.90
71344;BME280;59146;43.850;25.948;2023-05-10T04:17:03;101644.72;;;14.71;55.83
71344;BME280;59146;43.850;25.948;2023-05-10T04:19:29;101770.00;;;15.88;53.58
71344;BME280;59146;43.850;25.948;2023-05-10T04:21:55;101764.38;;;17.01;51.57
71344;BME280;59146;43.850;25.948;2023-05-10T04:24:20;101766.78;;;15.97;53.11
71344;BME280;59146;43.850;25.948;2023-05-10T04:26:46;101754.19;;;15.88;53.58
71344;BME280;59146;43.850;25.948;2023-05-10T04:29:11;101762.03;;;16.57;51.59
71344;BME280;59146;43.850;25.948;2023-05-10T04:31:37;101741.75;;;16.97;50.42
71344;BME280;59146;43.850;25.948;2023-05-10T04:34:03;101697.69;;;18.56;45.16
71344;BME280;59146;43.850;25.948;2023-05-10T04:36:28;101715.16;;;19.16;43.88
71344;BME280;59146;43.850;25.948;2023-05-10T04:38:54;101778.59;;;19.52;43.70
71344;BME280;59146;43.850;25.948;2023-05-10T04:41:19;101739.63;;;17.90;46.85
71344;BME280;59146;43.850;25.948;2023-05-10T04:43:45;101778.06;;;16.93;50.24
71344;BME280;59146;43.850;25.948;2023-05-10T04:46:11;101699.13;;;17.53;47.91
71344;BME280;59146;43.850;25.948;2023-05-10T04:48:36;101754.38;;;19.78;43.19
71344;BME280;59146;43.850;25.948;2023-05-10T04:51:02;101742.13;;;20.31;41.46
71344;BME280;59146;43.850;25.948;2023-05-10T04:53:29;101737.19;;;19.27;43.12
71344;BME280;59146;43.850;25.948;2023-05-10T04:55:55;101742.13;;;18.64;45.14
71344;BME280;59146;43.850;25.948;2023-05-10T04:58:20;101766.91;;;17.15;48.44
71344;BME280;59146;43.850;25.948;2023-05-10T05:00:46;101745.44;;;16.28;51.93
71344;BME280;59146;43.850;25.948;2023-05-10T05:03:11;101792.53;;;16.20;52.01
71344;BME280;59146;43.850;25.948;2023-05-10T05:05:37;101738.75;;;15.40;54.92
71344;BME280;59146;43.850;25.948;2023-05-10T05:08:02;101745.66;;;14.69;58.59
71344;BME280;59146;43.850;25.948;2023-05-10T05:10:28;101778.47;;;15.93;55.07
71344;BME280;59146;43.850;25.948;2023-05-10T05:12:53;101724.00;;;16.99;51.03
71344;BME280;59146;43.850;25.948;2023-05-10T05:15:18;101792.22;;;18.18;48.97
71344;BME280;59146;43.850;25.948;2023-05-10T05:17:44;101744.00;;;17.40;49.09
71344;BME280;59146;43.850;25.948;2023-05-10T05:20:10;101783.94;;;16.31;52.69
71344;BME280;59146;43.850;25.948;2023-05-10T05:22:36;101784.13;;;15.15;56.83
71344;BME280;59146;43.850;25.948;2023-05-10T05:25:02;101752.41;;;14.12;59.20
71344;BME280;59146;43.850;25.948;2023-05-10T05:27:28;101727.09;;;12.46;66.01
71344;BME280;59146;43.850;25.948;2023-05-10T05:29:54;101732.56;;;12.58;66.24
71344;BME280;59146;43.850;25.948;2023-05-10T05:32:20;101757.03;;;12.40;67.90
71344;BME280;59146;43.850;25.948;2023-05-10T05:34:46;101736.50;;;12.14;68.72
71344;BME280;59146;43.850;25.948;2023-05-10T05:37:15;101740.94;;;12.12;68.98
71344;BME280;59146;43.850;25.948;2023-05-10T05:39:41;101763.47;;;11.79;71.14
71344;BME280;59146;43.850;25.948;2023-05-10T05:42:07;101742.38;;;11.43;72.06
71344;BME280;59146;43.850;25.948;2023-05-10T05:44:33;101638.06;;;11.17;71.31
71344;BME280;59146;43.850;25.948;2023-05-10T05:46:58;101723.09;;;12.20;69.77
71344;BME280;59146;43.850;25.948;2023-05-10T05:49:24;101793.59;;;12.96;69.40
71344;BME280;59146;43.850;25.948;2023-05-10T05:51:49;101776.00;;;12.98;69.66
71344;BME280;59146;43.850;25.948;2023-05-10T05:54:15;101736.81;;;13.12;66.49
71344;BME280;59146;43.850;25.948;2023-05-10T05:56:40;101695.78;;;12.43;67.12
71344;BME280;59146;43.850;25.948;2023-05-10T05:59:06;101771.44;;;12.85;68.26
71344;BME280;59146;43.850;25.948;2023-05-10T06:01:31;101721.38;;;12.72;67.32
71344;BME280;59146;43.850;25.948;2023-05-10T06:03:57;101796.97;;;13.82;66.44
71344;BME280;59146;43.850;25.948;2023-05-10T06:06:22;101687.50;;;13.98;63.12
71344;BME280;59146;43.850;25.948;2023-05-10T06:08:48;101771.34;;;15.23;60.32
71344;BME280;59146;43.850;25.948;2023-05-10T06:11:13;101727.19;;;15.14;59.32
71344;BME280;59146;43.850;25.948;2023-05-10T06:13:39;101770.91;;;15.31;58.66
71344;BME280;59146;43.850;25.948;2023-05-10T06:16:04;101768.78;;;14.64;59.69
71344;BME280;59146;43.850;25.948;2023-05-10T06:18:30;101745.31;;;14.45;60.40
71344;BME280;59146;43.850;25.948;2023-05-10T06:20:56;101730.41;;;13.99;62.92
71344;BME280;59146;43.850;25.948;2023-05-10T06:23:22;101784.13;;;14.85;62.38
71344;BME280;59146;43.850;25.948;2023-05-10T06:25:48;101763.78;;;15.33;60.40
71344;BME280;59146;43.850;25.948;2023-05-10T06:28:13;101785.25;;;15.97;58.66
71344;BME280;59146;43.850;25.948;2023-05-10T06:30:38;101781.19;;;16.32;57.50
71344;BME280;59146;43.850;25.948;2023-05-10T06:33:04;101720.88;;;15.87;57.71
71344;BME280;59146;43.850;25.948;2023-05-10T06:35:30;101740.72;;;15.08;60.52
71344;BME280;59146;43.850;25.948;2023-05-10T06:37:56;101723.94;;;16.08;57.23
71344;BME280;59146;43.850;25.948;2023-05-10T06:40:21;101674.97;;;15.91;56.16
71344;BME280;59146;43.850;25.948;2023-05-10T06:42:47;101739.53;;;16.91;54.83
71344;BME280;59146;43.850;25.948;2023-05-10T06:45:14;101786.56;;;17.23;54.92
71344;BME280;59146;43.850;25.948;2023-05-10T06:47:40;101737.75;;;17.04;54.67
71344;BME280;59146;43.850;25.948;2023-05-10T06:50:09;101713.13;;;16.91;56.46
71344;BME280;59146;43.850;25.948;2023-05-10T06:52:36;101733.44;;;16.63;56.54
71344;BME280;59146;43.850;25.948;2023-05-10T06:55:03;101759.72;;;16.38;58.36
71344;BME280;59146;43.850;25.948;2023-05-10T06:57:28;101730.44;;;16.95;53.78
71344;BME280;59146;43.850;25.948;2023-05-10T06:59:54;101736.28;;;17.12;53.66
71344;BME280;59146;43.850;25.948;2023-05-10T07:02:21;101703.97;;;16.96;53.56
71344;BME280;59146;43.850;25.948;2023-05-10T07:04:47;101718.97;;;17.08;54.04
71344;BME280;59146;43.850;25.948;2023-05-10T07:07:13;101721.50;;;17.22;53.39
71344;BME280;59146;43.850;25.948;2023-05-10T07:09:39;101777.34;;;17.04;55.23
71344;BME280;59146;43.850;25.948;2023-05-10T07:12:04;101707.41;;;16.84;55.50
71344;BME280;59146;43.850;25.948;2023-05-10T07:14:30;101751.94;;;17.78;53.55
71344;BME280;59146;43.850;25.948;2023-05-10T07:16:55;101704.78;;;17.72;52.77
71344;BME280;59146;43.850;25.948;2023-05-10T07:19:20;101723.53;;;18.05;51.38
71344;BME280;59146;43.850;25.948;2023-05-10T07:21:46;101769.53;;;18.03;52.85
71344;BME280;59146;43.850;25.948;2023-05-10T07:24:11;101716.75;;;17.27;54.97
71344;BME280;59146;43.850;25.948;2023-05-10T07:26:37;101740.53;;;17.40;55.28
71344;BME280;59146;43.850;25.948;2023-05-10T07:29:02;101785.84;;;18.20;52.81
71344;BME280;59146;43.850;25.948;2023-05-10T07:31:28;101745.91;;;18.12;51.23
71344;BME280;59146;43.850;25.948;2023-05-10T07:33:53;101787.84;;;18.77;51.89
71344;BME280;59146;43.850;25.948;2023-05-10T07:36:19;101692.69;;;18.41;51.30
71344;BME280;59146;43.850;25.948;2023-05-10T07:38:44;101768.91;;;18.23;52.39
71344;BME280;59146;43.850;25.948;2023-05-10T07:41:11;101720.63;;;16.97;54.52
71344;BME280;59146;43.850;25.948;2023-05-10T07:43:37;101752.38;;;16.70;57.46
71344;BME280;59146;43.850;25.948;2023-05-10T07:46:02;101726.00;;;16.43;58.06
71344;BME280;59146;43.850;25.948;2023-05-10T07:48:27;101702.63;;;16.51;57.48
71344;BME280;59146;43.850;25.948;2023-05-10T07:50:53;101740.53;;;17.15;57.39
71344;BME280;59146;43.850;25.948;2023-05-10T07:53:18;101719.69;;;17.73;55.43
71344;BME280;59146;43.850;25.948;2023-05-10T07:55:44;101727.88;;;18.41;53.09
71344;BME280;59146;43.850;25.948;2023-05-10T07:58:10;101678.72;;;17.91;52.61
71344;BME280;59146;43.850;25.948;2023-05-10T08:00:35;101752.59;;;18.05;52.30
71344;BME280;59146;43.850;25.948;2023-05-10T08:03:07;101722.78;;;17.17;54.51
71344;BME280;59146;43.850;25.948;2023-05-10T08:05:32;101665.50;;;16.54;55.41
71344;BME280;59146;43.850;25.948;2023-05-10T08:07:58;101731.16;;;16.72;52.70
71344;BME280;59146;43.850;25.948;2023-05-10T08:10:24;101599.78;;;16.12;54.27
71344;BME280;59146;43.850;25.948;2023-05-10T08:12:50;101693.84;;;16.51;53.02
71344;BME280;59146;43.850;25.948;2023-05-10T08:15:16;101746.94;;;16.98;56.22
71344;BME280;59146;43.850;25.948;2023-05-10T08:17:41;101708.34;;;16.31;55.51
71344;BME280;59146;43.850;25.948;2023-05-10T08:20:08;101760.91;;;16.74;54.59
71344;BME280;59146;43.850;25.948;2023-05-10T08:22:33;101727.13;;;16.39;56.07
71344;BME280;59146;43.850;25.948;2023-05-10T08:24:59;101713.16;;;15.98;56.80
71344;BME280;59146;43.850;25.948;2023-05-10T08:27:24;101590.41;;;14.56;59.50
71344;BME280;59146;43.850;25.948;2023-05-10T08:29:50;101696.09;;;15.21;58.61
71344;BME280;59146;43.850;25.948;2023-05-10T08:32:15;101752.69;;;15.84;58.74
71344;BME280;59146;43.850;25.948;2023-05-10T08:34:40;101712.09;;;15.60;59.06
71344;BME280;59146;43.850;25.948;2023-05-10T08:37:06;101752.16;;;16.20;57.53
71344;BME280;59146;43.850;25.948;2023-05-10T08:39:34;101733.41;;;16.51;52.83
71344;BME280;59146;43.850;25.948;2023-05-10T08:42:02;101600.09;;;14.98;55.47
71344;BME280;59146;43.850;25.948;2023-05-10T08:44:31;101755.44;;;16.23;54.00
71344;BME280;59146;43.850;25.948;2023-05-10T08:46:59;101757.47;;;16.86;47.98
71344;BME280;59146;43.850;25.948;2023-05-10T08:49:31;101695.03;;;16.59;44.32
71344;BME280;59146;43.850;25.948;2023-05-10T08:51:57;101759.56;;;16.81;42.80
71344;BME280;59146;43.850;25.948;2023-05-10T08:54:24;101676.47;;;16.61;42.75
71344;BME280;59146;43.850;25.948;2023-05-10T08:56:50;101693.00;;;16.90;42.47
71344;BME280;59146;43.850;25.948;2023-05-10T08:59:15;101724.81;;;16.61;41.27
71344;BME280;59146;43.850;25.948;2023-05-10T09:01:42;101741.13;;;17.06;42.80
71344;BME280;59146;43.850;25.948;2023-05-10T09:04:09;101750.66;;;17.71;38.95
71344;BME280;59146;43.850;25.948;2023-05-10T09:06:34;101709.34;;;17.45;39.18
71344;BME280;59146;43.850;25.948;2023-05-10T09:09:01;101597.03;;;16.78;38.92
71344;BME280;59146;43.850;25.948;2023-05-10T09:11:26;101645.59;;;16.76;39.28
71344;BME280;59146;43.850;25.948;2023-05-10T09:13:54;101713.25;;;17.14;39.35
71344;BME280;59146;43.850;25.948;2023-05-10T09:16:20;101747.09;;;16.43;40.97
71344;BME280;59146;43.850;25.948;2023-05-10T09:18:46;101702.75;;;16.36;40.75
71344;BME280;59146;43.850;25.948;2023-05-10T09:21:12;101667.22;;;16.81;39.85
71344;BME280;59146;43.850;25.948;2023-05-10T09:23:37;101684.53;;;16.85;40.08
71344;BME280;59146;43.850;25.948;2023-05-10T09:26:04;101705.44;;;16.88;38.91
71344;BME280;59146;43.850;25.948;2023-05-10T09:28:54;101685.38;;;17.10;38.77
71344;BME280;59146;43.850;25.948;2023-05-10T09:31:21;101680.84;;;17.12;39.37
71344;BME280;59146;43.850;25.948;2023-05-10T09:33:48;101663.53;;;16.83;39.72
71344;BME280;59146;43.850;25.948;2023-05-10T09:36:14;101727.63;;;17.48;39.70
71344;BME280;59146;43.850;25.948;2023-05-10T09:41:16;101712.00;;;17.07;39.52
71344;BME280;59146;43.850;25.948;2023-05-10T09:43:42;101706.81;;;17.31;39.64
71344;BME280;59146;43.850;25.948;2023-05-10T09:46:11;101699.44;;;17.61;38.68
71344;BME280;59146;43.850;25.948;2023-05-10T09:48:45;101688.13;;;17.34;38.20
71344;BME280;59146;43.850;25.948;2023-05-10T09:51:18;101601.72;;;17.36;39.37
71344;BME280;59146;43.850;25.948;2023-05-10T09:53:44;101702.38;;;18.53;37.28
71344;BME280;59146;43.850;25.948;2023-05-10T09:56:09;101709.94;;;17.86;37.84
71344;BME280;59146;43.850;25.948;2023-05-10T09:58:36;101673.13;;;17.09;39.26
71344;BME280;59146;43.850;25.948;2023-05-10T10:01:03;101677.66;;;17.20;39.76
71344;BME280;59146;43.850;25.948;2023-05-10T10:03:29;101581.84;;;16.56;39.87
71344;BME280;59146;43.850;25.948;2023-05-10T10:05:55;101681.50;;;17.77;39.94
71344;BME280;59146;43.850;25.948;2023-05-10T10:08:21;101706.28;;;18.00;39.08
71344;BME280;59146;43.850;25.948;2023-05-10T10:10:47;101663.53;;;17.82;39.86
71344;BME280;59146;43.850;25.948;2023-05-10T10:13:13;101646.19;;;17.55;39.12
71344;BME280;59146;43.850;25.948;2023-05-10T10:15:39;101687.69;;;17.65;39.16
71344;BME280;59146;43.850;25.948;2023-05-10T10:18:05;101664.63;;;17.67;38.80
71344;BME280;59146;43.850;25.948;2023-05-10T10:20:31;101704.50;;;18.00;38.14
71344;BME280;59146;43.850;25.948;2023-05-10T10:22:56;101706.47;;;17.73;38.66
71344;BME280;59146;43.850;25.948;2023-05-10T10:25:44;101680.25;;;18.06;37.95
71344;BME280;59146;43.850;25.948;2023-05-10T10:28:24;101720.66;;;18.32;36.97
71344;BME280;59146;43.850;25.948;2023-05-10T10:30:52;101648.00;;;17.78;37.64
71344;BME280;59146;43.850;25.948;2023-05-10T10:33:55;101724.69;;;17.65;38.96
71344;BME280;59146;43.850;25.948;2023-05-10T10:36:24;101701.41;;;17.70;39.15
71344;BME280;59146;43.850;25.948;2023-05-10T10:44:35;101692.69;;;18.41;36.70
71344;BME280;59146;43.850;25.948;2023-05-10T10:52:33;101683.16;;;19.85;34.62
71344;BME280;59146;43.850;25.948;2023-05-10T10:55:17;101664.50;;;19.64;33.64
71344;BME280;59146;43.850;25.948;2023-05-10T10:57:54;101657.38;;;18.98;34.42
71344;BME280;59146;43.850;25.948;2023-05-10T11:00:27;101607.41;;;18.37;35.58
71344;BME280;59146;43.850;25.948;2023-05-10T11:03:14;101664.56;;;18.74;35.29
71344;BME280;59146;43.850;25.948;2023-05-10T11:05:48;101653.38;;;19.04;33.61
71344;BME280;59146;43.850;25.948;2023-05-10T11:08:16;101606.06;;;18.55;34.19
71344;BME280;59146;43.850;25.948;2023-05-10T11:10:53;101627.88;;;18.81;33.29
71344;BME280;59146;43.850;25.948;2023-05-10T11:13:51;101636.03;;;18.08;36.10
71344;BME280;59146;43.850;25.948;2023-05-10T11:16:24;101630.13;;;18.63;36.14
71344;BME280;59146;43.850;25.948;2023-05-10T11:19:03;101652.28;;;18.73;35.68
71344;BME280;59146;43.850;25.948;2023-05-10T11:21:32;101593.03;;;18.52;34.95
71344;BME280;59146;43.850;25.948;2023-05-10T11:23:59;101600.47;;;17.89;35.79
71344;BME280;59146;43.850;25.948;2023-05-10T11:26:31;101651.13;;;17.59;36.21
71344;BME280;59146;43.850;25.948;2023-05-10T11:28:57;101608.09;;;17.21;37.45
71344;BME280;59146;43.850;25.948;2023-05-10T11:31:27;101527.19;;;16.84;37.02
71344;BME280;59146;43.850;25.948;2023-05-10T11:33:55;101636.56;;;17.41;36.20
71344;BME280;59146;43.850;25.948;2023-05-10T11:36:24;101604.06;;;17.28;36.65
71344;BME280;59146;43.850;25.948;2023-05-10T11:38:50;101649.22;;;17.61;36.13
71344;BME280;59146;43.850;25.948;2023-05-10T11:41:18;101633.59;;;17.58;35.58
71344;BME280;59146;43.850;25.948;2023-05-10T11:43:46;101590.47;;;17.45;35.30
71344;BME280;59146;43.850;25.948;2023-05-10T11:46:14;101589.22;;;17.74;35.59
71344;BME280;59146;43.850;25.948;2023-05-10T11:48:41;101615.69;;;18.67;32.64
71344;BME280;59146;43.850;25.948;2023-05-10T11:51:07;101622.56;;;18.70;32.13
71344;BME280;59146;43.850;25.948;2023-05-10T11:53:33;101571.53;;;18.57;31.59
71344;BME280;59146;43.850;25.948;2023-05-10T11:56:09;101624.16;;;18.94;32.51
71344;BME280;59146;43.850;25.948;2023-05-10T11:58:36;101595.41;;;19.12;32.54
71344;BME280;59146;43.850;25.948;2023-05-10T12:01:02;101611.88;;;19.16;33.06
71344;BME280;59146;43.850;25.948;2023-05-10T12:03:35;101557.59;;;18.66;33.45
71344;BME280;59146;43.850;25.948;2023-05-10T12:06:02;101609.09;;;19.17;33.97
71344;BME280;59146;43.850;25.948;2023-05-10T12:08:29;101636.94;;;19.34;33.50
71344;BME280;59146;43.850;25.948;2023-05-10T12:11:06;101605.84;;;19.02;33.76
71344;BME280;59146;43.850;25.948;2023-05-10T12:13:31;101555.91;;;18.76;33.60
71344;BME280;59146;43.850;25.948;2023-05-10T12:15:58;101605.78;;;19.37;33.35
71344;BME280;59146;43.850;25.948;2023-05-10T12:18:24;101558.69;;;18.63;33.13
71344;BME280;59146;43.850;25.948;2023-05-10T12:20:52;101574.56;;;18.96;33.49
71344;BME280;59146;43.850;25.948;2023-05-10T12:23:20;101612.84;;;19.26;33.06
71344;BME280;59146;43.850;25.948;2023-05-10T12:25:45;101546.50;;;19.38;33.22
71344;BME280;59146;43.850;25.948;2023-05-10T12:28:11;101622.34;;;19.50;32.62
71344;BME280;59146;43.850;25.948;2023-05-10T12:30:37;101539.06;;;18.66;32.74
71344;BME280;59146;43.850;25.948;2023-05-10T12:33:11;101528.22;;;18.47;33.15
71344;BME280;59146;43.850;25.948;2023-05-10T12:35:46;101530.00;;;18.00;34.48
71344;BME280;59146;43.850;25.948;2023-05-10T12:40:51;101531.59;;;18.71;31.58
71344;BME280;59146;43.850;25.948;2023-05-10T12:43:16;101564.81;;;19.19;31.59
71344;BME280;59146;43.850;25.948;2023-05-10T12:45:41;101559.28;;;19.22;32.09
71344;BME280;59146;43.850;25.948;2023-05-10T12:48:07;101579.50;;;19.45;32.03
71344;BME280;59146;43.850;25.948;2023-05-10T12:50:32;101510.06;;;18.75;32.48
71344;BME280;59146;43.850;25.948;2023-05-10T12:52:57;101570.94;;;19.09;32.69
71344;BME280;59146;43.850;25.948;2023-05-10T12:55:23;101510.41;;;19.15;31.63
71344;BME280;59146;43.850;25.948;2023-05-10T12:57:48;101506.38;;;19.54;31.11
71344;BME280;59146;43.850;25.948;2023-05-10T13:00:14;101551.25;;;19.66;31.68
71344;BME280;59146;43.850;25.948;2023-05-10T13:02:40;101549.53;;;19.76;31.73
71344;BME280;59146;43.850;25.948;2023-05-10T13:05:05;101510.84;;;19.31;31.36
71344;BME280;59146;43.850;25.948;2023-05-10T13:07:31;101553.25;;;19.20;31.19
71344;BME280;59146;43.850;25.948;2023-05-10T13:09:56;101509.22;;;18.75;30.48
71344;BME280;59146;43.850;25.948;2023-05-10T13:12:22;101526.56;;;18.90;30.50
71344;BME280;59146;43.850;25.948;2023-05-10T13:14:47;101498.16;;;18.59;31.46
71344;BME280;59146;43.850;25.948;2023-05-10T13:17:12;101536.16;;;19.02;31.40
71344;BME280;59146;43.850;25.948;2023-05-10T13:19:38;101466.78;;;18.54;32.05
71344;BME280;59146;43.850;25.948;2023-05-10T13:22:03;101517.41;;;19.16;32.54
71344;BME280;59146;43.850;25.948;2023-05-10T13:24:29;101506.59;;;18.75;33.07